Time;durP1;ratioP1;P1;durP2;ratioP2;P2;SDS_P1;SDS_P2;PMS_P1;PMS_P2;Temp;Humidity;BMP_temperature;BMP_pressure;BME280_temperature;BME280_humidity;BME280_pressure;Samples;Min_cycle;Max_cycle;Signal;HPM_P1;HPM_P2
2023/01/25 00:00:48;;;;;;;17.27;12.10;;;;;;;;;;5075666;28;20193;-81
2023/01/25 00:03:14;;;;;;;17.13;13.35;;;;;;;;;;5041221;28;20234;-81
2023/01/25 00:05:40;;;;;;;20.23;14.87;;;;;;;;;;5058207;28;20181;-82
2023/01/25 00:08:06;;;;;;;19.33;13.93;;;;;;;;;;5057932;28;20471;-82
2023/01/25 00:10:32;;;;;;;18.80;13.30;;;;;;;;;;5075539;28;20571;-81
2023/01/25 00:12:58;;;;;;;20.33;14.20;;;;;;;;;;5057605;28;20434;-81
2023/01/25 00:15:24;;;;;;;18.15;12.32;;;;;;;;;;5057884;28;20445;-81
2023/01/25 00:17:50;;;;;;;22.00;14.10;;;;;;;;;;5057793;28;20176;-86
2023/01/25 00:20:16;;;;;;;20.67;15.40;;;;;;;;;;5040712;28;20436;-82
2023/01/25 00:22:42;;;;;;;19.42;13.15;;;;;;;;;;5057710;28;20975;-81
2023/01/25 00:25:08;;;;;;;21.25;14.70;;;;;;;;;;5041179;28;20247;-81
2023/01/25 00:27:34;;;;;;;21.52;14.10;;;;;;;;;;5075315;28;20189;-81
2023/01/25 00:30:00;;;;;;;19.77;14.68;;;;;;;;;;5057737;28;20187;-81
2023/01/25 00:32:53;;;;;;;18.80;12.90;;;;;;;;;;5057403;28;20675;-82
2023/01/25 00:35:19;;;;;;;17.50;12.68;;;;;;;;;;5071927;28;20193;-82
2023/01/25 00:37:51;;;;;;;19.35;14.93;;;;;;;;;;5056974;28;20275;-82
2023/01/25 00:40:17;;;;;;;17.52;13.10;;;;;;;;;;5075117;28;20172;-83
2023/01/25 00:42:43;;;;;;;21.70;14.63;;;;;;;;;;5057254;28;20246;-82
2023/01/25 00:45:11;;;;;;;18.35;14.05;;;;;;;;;;5057118;28;20165;-81
2023/01/25 00:47:37;;;;;;;20.35;13.90;;;;;;;;;;5057011;28;20233;-81
2023/01/25 00:50:05;;;;;;;19.88;14.13;;;;;;;;;;5041014;28;20176;-81
2023/01/25 00:52:31;;;;;;;18.35;13.73;;;;;;;;;;5057227;28;20620;-81
2023/01/25 00:54:57;;;;;;;18.33;13.32;;;;;;;;;;5040579;28;20501;-81
2023/01/25 00:57:23;;;;;;;19.85;13.65;;;;;;;;;;5075148;28;20667;-81
2023/01/25 00:59:48;;;;;;;20.83;14.50;;;;;;;;;;5039142;28;20276;-85
2023/01/25 01:02:14;;;;;;;21.27;15.23;;;;;;;;;;5054765;28;20797;-82
2023/01/25 01:04:40;;;;;;;17.97;13.50;;;;;;;;;;5040803;28;20408;-82
2023/01/25 01:07:06;;;;;;;19.70;14.23;;;;;;;;;;5060699;28;20527;-81
2023/01/25 01:09:32;;;;;;;22.65;15.02;;;;;;;;;;5078858;28;20207;-82
2023/01/25 01:11:58;;;;;;;16.73;13.10;;;;;;;;;;5061058;28;20606;-81
2023/01/25 01:14:24;;;;;;;19.50;13.37;;;;;;;;;;5061207;28;20245;-82
2023/01/25 01:16:50;;;;;;;18.13;13.90;;;;;;;;;;5083611;28;20467;-81
2023/01/25 01:19:16;;;;;;;18.83;13.70;;;;;;;;;;5044931;28;20423;-83
2023/01/25 01:21:42;;;;;;;17.42;12.60;;;;;;;;;;5060837;28;20465;-82
2023/01/25 01:24:09;;;;;;;23.70;14.15;;;;;;;;;;5061217;28;20179;-81
2023/01/25 01:26:35;;;;;;;20.08;12.82;;;;;;;;;;5060538;28;20181;-81
2023/01/25 01:29:02;;;;;;;19.15;14.27;;;;;;;;;;5061123;28;20194;-81
2023/01/25 01:31:28;;;;;;;20.50;13.95;;;;;;;;;;5078459;28;20267;-81
2023/01/25 01:33:55;;;;;;;20.10;14.55;;;;;;;;;;5078742;28;20652;-82
2023/01/25 01:36:22;;;;;;;18.38;13.07;;;;;;;;;;5060197;28;20195;-82
2023/01/25 01:38:48;;;;;;;21.42;14.05;;;;;;;;;;5078707;28;20168;-81
2023/01/25 01:41:15;;;;;;;21.33;14.40;;;;;;;;;;5078332;28;20183;-81
2023/01/25 01:43:41;;;;;;;23.50;14.50;;;;;;;;;;5060568;28;20213;-81
2023/01/25 01:46:14;;;;;;;19.70;14.35;;;;;;;;;;5060843;28;20223;-81
2023/01/25 01:48:43;;;;;;;21.67;14.80;;;;;;;;;;5060069;28;20194;-81
2023/01/25 01:51:18;;;;;;;20.75;15.38;;;;;;;;;;5078235;28;20207;-81
2023/01/25 01:53:46;;;;;;;20.38;13.85;;;;;;;;;;5060117;28;20183;-81
2023/01/25 01:56:15;;;;;;;19.55;14.68;;;;;;;;;;5078416;28;20173;-83
2023/01/25 01:58:42;;;;;;;18.50;14.80;;;;;;;;;;5078245;28;20176;-81
2023/01/25 02:01:08;;;;;;;17.05;13.32;;;;;;;;;;5078111;28;20178;-81
2023/01/25 02:03:34;;;;;;;20.63;13.68;;;;;;;;;;5077683;28;20260;-81
2023/01/25 02:06:08;;;;;;;17.75;12.85;;;;;;;;;;5059833;28;20186;-81
2023/01/25 02:08:35;;;;;;;18.48;13.32;;;;;;;;;;5060101;28;20188;-81
2023/01/25 02:11:01;;;;;;;20.92;13.60;;;;;;;;;;5060301;28;20241;-81
2023/01/25 02:13:28;;;;;;;20.42;15.50;;;;;;;;;;5077994;28;20176;-81
2023/01/25 02:15:55;;;;;;;18.83;12.60;;;;;;;;;;5078388;28;20189;-81
2023/01/25 02:18:21;;;;;;;19.95;14.45;;;;;;;;;;5060316;28;20263;-87
2023/01/25 02:20:52;;;;;;;20.27;14.27;;;;;;;;;;5060505;28;20211;-81
2023/01/25 02:23:31;;;;;;;17.20;13.48;;;;;;;;;;5078732;28;20240;-81
2023/01/25 02:25:57;;;;;;;19.90;15.05;;;;;;;;;;5059921;28;20241;-81
2023/01/25 02:28:27;;;;;;;19.08;13.05;;;;;;;;;;5077682;28;20195;-83
2023/01/25 02:30:53;;;;;;;19.33;13.30;;;;;;;;;;5077531;28;20507;-81
2023/01/25 02:33:22;;;;;;;21.20;14.53;;;;;;;;;;5059689;28;20177;-81
2023/01/25 02:35:50;;;;;;;20.35;15.32;;;;;;;;;;5059814;28;20925;-81
2023/01/25 02:38:17;;;;;;;18.77;14.18;;;;;;;;;;5059356;28;20181;-81
2023/01/25 02:40:48;;;;;;;21.20;14.45;;;;;;;;;;5059288;28;20226;-81
2023/01/25 02:43:15;;;;;;;18.85;13.98;;;;;;;;;;5077567;28;20293;-81
2023/01/25 02:45:43;;;;;;;22.25;15.88;;;;;;;;;;5059304;28;20628;-81
2023/01/25 02:48:09;;;;;;;17.77;12.68;;;;;;;;;;5059477;28;20306;-81
2023/01/25 02:50:35;;;;;;;22.13;15.50;;;;;;;;;;5059427;28;20238;-81
2023/01/25 02:53:01;;;;;;;21.10;13.85;;;;;;;;;;5059517;28;20441;-81
2023/01/25 02:55:27;;;;;;;21.03;15.00;;;;;;;;;;5042725;28;20528;-82
2023/01/25 02:57:53;;;;;;;20.73;14.80;;;;;;;;;;5059334;28;20551;-82
2023/01/25 03:00:19;;;;;;;18.45;14.02;;;;;;;;;;5076979;28;20169;-82
2023/01/25 03:02:45;;;;;;;21.75;15.70;;;;;;;;;;5077129;28;20180;-81
2023/01/25 03:05:11;;;;;;;20.77;13.93;;;;;;;;;;5059103;28;20230;-85
2023/01/25 03:07:37;;;;;;;21.47;14.00;;;;;;;;;;5058647;28;20496;-82
2023/01/25 03:10:03;;;;;;;16.85;12.77;;;;;;;;;;5058684;28;20489;-81
2023/01/25 03:12:29;;;;;;;17.17;13.30;;;;;;;;;;5058743;28;20199;-82
2023/01/25 03:14:55;;;;;;;18.40;13.77;;;;;;;;;;5078036;28;20621;-81
2023/01/25 03:17:21;;;;;;;16.70;13.00;;;;;;;;;;5059830;28;20199;-81
2023/01/25 03:19:47;;;;;;;18.10;13.60;;;;;;;;;;5058885;28;20888;-81
2023/01/25 03:22:13;;;;;;;19.17;14.03;;;;;;;;;;5058083;28;20508;-82
2023/01/25 03:24:39;;;;;;;19.08;13.40;;;;;;;;;;5076512;28;20455;-81
2023/01/25 03:27:12;;;;;;;19.13;14.03;;;;;;;;;;5041909;28;20181;-81
2023/01/25 03:29:38;;;;;;;20.33;14.00;;;;;;;;;;5058525;28;20411;-81
2023/01/25 03:32:04;;;;;;;21.00;14.15;;;;;;;;;;5058701;28;20253;-80
2023/01/25 03:34:30;;;;;;;20.60;13.70;;;;;;;;;;5075998;28;20207;-81
2023/01/25 03:36:56;;;;;;;20.55;14.20;;;;;;;;;;5076111;28;20195;-83
2023/01/25 03:39:22;;;;;;;20.70;15.30;;;;;;;;;;5076673;28;20165;-81
2023/01/25 03:41:48;;;;;;;22.07;14.60;;;;;;;;;;5041621;28;20426;-81
2023/01/25 03:44:14;;;;;;;20.83;14.73;;;;;;;;;;5041543;28;20991;-81
2023/01/25 03:46:41;;;;;;;21.17;14.70;;;;;;;;;;5058541;28;20755;-81
2023/01/25 03:49:07;;;;;;;21.65;15.50;;;;;;;;;;5058016;28;20407;-81
2023/01/25 03:51:34;;;;;;;23.45;15.80;;;;;;;;;;5057614;28;20684;-82
2023/01/25 03:54:00;;;;;;;20.55;15.35;;;;;;;;;;5075800;28;20204;-81
2023/01/25 03:56:26;;;;;;;21.80;15.95;;;;;;;;;;5075925;28;20208;-81
2023/01/25 03:58:52;;;;;;;21.53;15.77;;;;;;;;;;5057550;28;20176;-81
2023/01/25 04:01:18;;;;;;;19.05;13.52;;;;;;;;;;5075882;28;20406;-81
2023/01/25 04:03:44;;;;;;;21.00;14.33;;;;;;;;;;5075650;28;20183;-81
2023/01/25 04:06:10;;;;;;;21.73;15.30;;;;;;;;;;5057647;28;20405;-81
2023/01/25 04:08:36;;;;;;;21.30;16.00;;;;;;;;;;5057614;28;20185;-81
2023/01/25 04:11:04;;;;;;;21.23;14.93;;;;;;;;;;5057555;28;20201;-81
2023/01/25 04:13:34;;;;;;;22.33;16.67;;;;;;;;;;5057193;28;20292;-81
2023/01/25 04:16:00;;;;;;;24.88;17.17;;;;;;;;;;5057848;28;20179;-81
2023/01/25 04:18:26;;;;;;;26.17;17.38;;;;;;;;;;5075437;28;20170;-81
2023/01/25 04:20:52;;;;;;;19.60;15.00;;;;;;;;;;5074920;28;20179;-81
2023/01/25 04:23:18;;;;;;;21.23;15.75;;;;;;;;;;5057869;28;20184;-81
2023/01/25 04:25:52;;;;;;;18.95;14.40;;;;;;;;;;5075637;28;20175;-81
2023/01/25 04:28:18;;;;;;;20.27;14.70;;;;;;;;;;5057383;28;20233;-81
2023/01/25 04:30:44;;;;;;;23.55;14.88;;;;;;;;;;5075262;28;20210;-81
2023/01/25 04:33:10;;;;;;;21.03;14.80;;;;;;;;;;5040717;28;20183;-81
2023/01/25 04:35:36;;;;;;;23.65;16.40;;;;;;;;;;5057123;28;20446;-81
2023/01/25 04:38:03;;;;;;;28.45;16.17;;;;;;;;;;5075395;28;20189;-81
2023/01/25 04:40:29;;;;;;;22.55;15.52;;;;;;;;;;5057402;28;20188;-81
2023/01/25 04:42:55;;;;;;;21.63;16.08;;;;;;;;;;5057120;28;20180;-81
2023/01/25 04:45:21;;;;;;;22.42;14.75;;;;;;;;;;5074808;28;20173;-81
2023/01/25 04:47:47;;;;;;;28.27;18.35;;;;;;;;;;5061238;28;20175;-81
2023/01/25 04:50:13;;;;;;;27.30;18.90;;;;;;;;;;5056584;28;20241;-82
2023/01/25 04:52:39;;;;;;;28.85;19.27;;;;;;;;;;5056561;28;20468;-81
2023/01/25 04:55:05;;;;;;;28.60;18.70;;;;;;;;;;5057419;28;20199;-81
2023/01/25 04:57:31;;;;;;;27.17;17.25;;;;;;;;;;5057488;28;20269;-86
2023/01/25 04:59:57;;;;;;;25.07;17.90;;;;;;;;;;5056843;28;20188;-81
2023/01/25 05:02:23;;;;;;;26.70;17.27;;;;;;;;;;5057291;28;20413;-81
2023/01/25 05:04:49;;;;;;;26.95;18.55;;;;;;;;;;5056763;28;20407;-81
2023/01/25 05:07:15;;;;;;;27.87;18.33;;;;;;;;;;5040198;28;20239;-81
2023/01/25 05:09:41;;;;;;;32.47;20.98;;;;;;;;;;5074846;28;20437;-82
2023/01/25 05:12:10;;;;;;;30.85;20.30;;;;;;;;;;5040738;28;20211;-80
2023/01/25 05:14:37;;;;;;;34.13;18.73;;;;;;;;;;5074597;28;20172;-81
2023/01/25 05:17:03;;;;;;;32.90;21.38;;;;;;;;;;5056796;28;20176;-82
2023/01/25 05:19:29;;;;;;;30.80;20.00;;;;;;;;;;5056723;28;20203;-81
2023/01/25 05:21:58;;;;;;;25.87;17.90;;;;;;;;;;5056453;28;20447;-81
2023/01/25 05:24:24;;;;;;;28.05;16.60;;;;;;;;;;5056906;28;20426;-81
2023/01/25 05:26:59;;;;;;;30.17;18.65;;;;;;;;;;5056672;28;20180;-81
2023/01/25 05:29:26;;;;;;;29.30;18.60;;;;;;;;;;5074890;28;20168;-81
2023/01/25 05:31:52;;;;;;;27.17;18.20;;;;;;;;;;5074539;28;20635;-81
2023/01/25 05:34:18;;;;;;;25.13;16.05;;;;;;;;;;5057197;28;20183;-81
2023/01/25 05:36:44;;;;;;;27.60;17.70;;;;;;;;;;5056212;28;20184;-81
2023/01/25 05:39:10;;;;;;;26.27;16.20;;;;;;;;;;5057538;28;20925;-81
2023/01/25 05:41:36;;;;;;;30.75;21.52;;;;;;;;;;5074610;28;20587;-82
2023/01/25 05:44:02;;;;;;;31.63;20.60;;;;;;;;;;5056894;28;20281;-83
2023/01/25 05:46:28;;;;;;;27.73;19.95;;;;;;;;;;5075179;28;20410;-81
2023/01/25 05:48:54;;;;;;;29.00;18.23;;;;;;;;;;5076317;28;20226;-81
2023/01/25 05:51:20;;;;;;;30.13;18.50;;;;;;;;;;5061242;28;20248;-81
2023/01/25 05:53:46;;;;;;;29.35;19.75;;;;;;;;;;5060664;28;20185;-81
2023/01/25 05:56:12;;;;;;;25.70;18.23;;;;;;;;;;5078322;28;20647;-83
2023/01/25 05:58:39;;;;;;;31.15;20.17;;;;;;;;;;5078684;28;20399;-81
2023/01/25 06:01:06;;;;;;;33.83;21.15;;;;;;;;;;5060666;28;20180;-81
2023/01/25 06:03:32;;;;;;;34.63;21.65;;;;;;;;;;5078491;28;20181;-81
2023/01/25 06:06:03;;;;;;;33.50;21.67;;;;;;;;;;5078261;28;20733;-81
2023/01/25 06:08:29;;;;;;;29.75;20.25;;;;;;;;;;5078394;28;20260;-81
2023/01/25 06:10:56;;;;;;;33.45;21.30;;;;;;;;;;5060117;28;20185;-81
2023/01/25 06:13:22;;;;;;;33.03;19.42;;;;;;;;;;5060016;28;20492;-81
2023/01/25 06:15:55;;;;;;;34.47;20.27;;;;;;;;;;5078103;28;20177;-81
2023/01/25 06:18:21;;;;;;;28.35;18.67;;;;;;;;;;5059956;28;20248;-81
2023/01/25 06:20:47;;;;;;;33.30;20.60;;;;;;;;;;5077924;28;20172;-81
2023/01/25 06:23:13;;;;;;;34.40;21.08;;;;;;;;;;5059945;28;20183;-81
2023/01/25 06:25:39;;;;;;;36.22;21.58;;;;;;;;;;5059757;28;20640;-81
2023/01/25 06:28:05;;;;;;;27.45;18.50;;;;;;;;;;5043647;28;20187;-81
2023/01/25 06:30:31;;;;;;;31.73;18.07;;;;;;;;;;5078366;28;20180;-81
2023/01/25 06:32:58;;;;;;;37.43;20.07;;;;;;;;;;5059947;28;20493;-81
2023/01/25 06:35:24;;;;;;;26.10;17.67;;;;;;;;;;5044065;28;20429;-81
2023/01/25 06:37:50;;;;;;;31.58;18.08;;;;;;;;;;5059536;28;20180;-81
2023/01/25 06:40:16;;;;;;;27.48;17.85;;;;;;;;;;5059381;28;20636;-81
2023/01/25 06:42:42;;;;;;;28.42;18.52;;;;;;;;;;5059475;28;20514;-81
2023/01/25 06:45:08;;;;;;;33.33;19.20;;;;;;;;;;5042903;28;20233;-81
2023/01/25 06:47:34;;;;;;;31.50;18.92;;;;;;;;;;5059216;28;20274;-81
2023/01/25 06:50:00;;;;;;;29.93;17.67;;;;;;;;;;5042868;28;20215;-81
2023/01/25 06:52:26;;;;;;;32.28;19.65;;;;;;;;;;5077123;28;20508;-81
2023/01/25 06:54:52;;;;;;;27.38;18.15;;;;;;;;;;5059480;28;20233;-83
2023/01/25 06:57:18;;;;;;;35.27;19.30;;;;;;;;;;5059394;28;20587;-81
2023/01/25 06:59:44;;;;;;;23.90;16.47;;;;;;;;;;5076251;28;20502;-82
2023/01/25 07:02:14;;;;;;;27.03;16.47;;;;;;;;;;5022060;28;20538;-82
2023/01/25 07:04:40;;;;;;;30.45;18.85;;;;;;;;;;5037151;28;20400;-82
2023/01/25 07:07:09;;;;;;;31.80;19.40;;;;;;;;;;5051362;28;20263;-82
2023/01/25 07:09:35;;;;;;;30.23;18.25;;;;;;;;;;5051554;28;20932;-82
2023/01/25 07:12:03;;;;;;;28.10;16.92;;;;;;;;;;5051262;28;20210;-82
2023/01/25 07:14:29;;;;;;;33.08;19.50;;;;;;;;;;5051496;28;20286;-83
2023/01/25 07:16:55;;;;;;;29.08;18.73;;;;;;;;;;5051627;28;20188;-81
2023/01/25 07:19:21;;;;;;;32.88;19.17;;;;;;;;;;5036300;28;20176;-82
2023/01/25 07:21:47;;;;;;;36.08;22.83;;;;;;;;;;5036223;28;20184;-87
2023/01/25 07:24:15;;;;;;;28.70;17.42;;;;;;;;;;5018814;28;20201;-87
2023/01/25 07:26:41;;;;;;;27.00;17.55;;;;;;;;;;5020579;28;20175;-89
2023/01/25 07:29:10;;;;;;;30.90;18.95;;;;;;;;;;5019625;28;20640;-83
2023/01/25 07:31:36;;;;;;;29.30;18.90;;;;;;;;;;5012999;28;20208;-83
2023/01/25 07:34:03;;;;;;;28.47;17.87;;;;;;;;;;5046543;28;20181;-84
2023/01/25 07:36:30;;;;;;;26.60;16.17;;;;;;;;;;5045801;28;20508;-80
2023/01/25 07:38:56;;;;;;;32.65;18.73;;;;;;;;;;5032035;28;20620;-82
2023/01/25 07:41:23;;;;;;;36.05;19.73;;;;;;;;;;5015665;28;20304;-80
2023/01/25 07:43:49;;;;;;;26.33;17.38;;;;;;;;;;5036897;28;20177;-81
2023/01/25 07:46:16;;;;;;;30.33;18.00;;;;;;;;;;5036821;28;20187;-82
2023/01/25 07:48:46;;;;;;;30.65;19.30;;;;;;;;;;5052164;28;20182;-82
2023/01/25 07:51:22;;;;;;;29.05;17.88;;;;;;;;;;5019287;28;20194;-81
2023/01/25 07:53:53;;;;;;;32.42;19.77;;;;;;;;;;5018171;28;20180;-81
2023/01/25 07:56:19;;;;;;;27.60;17.88;;;;;;;;;;5036680;28;20166;-81
2023/01/25 07:58:46;;;;;;;32.08;21.25;;;;;;;;;;5036705;28;20167;-80
2023/01/25 08:01:17;;;;;;;38.72;20.23;;;;;;;;;;5018692;28;20215;-80
2023/01/25 08:03:43;;;;;;;33.50;21.92;;;;;;;;;;5036295;28;20183;-81
2023/01/25 08:06:09;;;;;;;34.35;19.88;;;;;;;;;;5051556;28;20224;-80
2023/01/25 08:08:46;;;;;;;30.90;18.83;;;;;;;;;;5018870;28;20272;-79
2023/01/25 08:11:16;;;;;;;36.85;21.80;;;;;;;;;;5032716;28;20660;-80
2023/01/25 08:13:46;;;;;;;35.47;20.20;;;;;;;;;;5050976;28;20367;-82
2023/01/25 08:16:16;;;;;;;31.15;19.77;;;;;;;;;;5071716;28;20691;-80
2023/01/25 08:18:42;;;;;;;33.88;20.20;;;;;;;;;;5039116;28;20182;-80
2023/01/25 08:21:08;;;;;;;38.15;20.58;;;;;;;;;;5038763;28;20183;-80
2023/01/25 08:23:34;;;;;;;33.28;19.38;;;;;;;;;;5038724;28;20212;-79
2023/01/25 08:26:04;;;;;;;32.60;19.20;;;;;;;;;;5021649;28;20250;-80
2023/01/25 08:28:30;;;;;;;35.67;18.85;;;;;;;;;;5056144;28;20174;-81
2023/01/25 08:31:04;;;;;;;32.30;18.17;;;;;;;;;;5041588;28;20197;-80
2023/01/25 08:33:30;;;;;;;34.33;20.30;;;;;;;;;;5055877;28;20417;-79
2023/01/25 08:35:56;;;;;;;35.37;21.00;;;;;;;;;;5058090;28;20175;-80
2023/01/25 08:38:22;;;;;;;32.22;21.23;;;;;;;;;;5075985;28;20413;-80
2023/01/25 08:40:48;;;;;;;34.80;21.30;;;;;;;;;;5041094;28;20190;-81
2023/01/25 08:43:14;;;;;;;43.88;23.40;;;;;;;;;;5040879;28;20176;-81
2023/01/25 08:45:40;;;;;;;39.23;22.27;;;;;;;;;;5039073;28;20282;-81
2023/01/25 08:48:06;;;;;;;38.90;21.83;;;;;;;;;;5021157;28;20748;-80
2023/01/25 08:50:32;;;;;;;37.63;21.98;;;;;;;;;;5021571;28;20177;-80
2023/01/25 08:52:58;;;;;;;41.43;23.80;;;;;;;;;;5055400;28;20554;-80
2023/01/25 08:55:24;;;;;;;43.20;24.70;;;;;;;;;;5038413;28;20418;-80
2023/01/25 08:57:50;;;;;;;34.23;20.70;;;;;;;;;;5037021;28;20415;-81
2023/01/25 09:00:16;;;;;;;48.53;23.95;;;;;;;;;;5071001;28;20459;-81
2023/01/25 09:02:42;;;;;;;40.78;23.00;;;;;;;;;;5070678;28;20181;-81
2023/01/25 09:05:09;;;;;;;40.67;23.53;;;;;;;;;;5020679;28;20185;-81
2023/01/25 09:07:37;;;;;;;39.28;21.90;;;;;;;;;;5037167;28;20490;-81
2023/01/25 09:10:07;;;;;;;36.92;20.35;;;;;;;;;;5020917;28;20185;-81
2023/01/25 09:12:33;;;;;;;37.60;20.95;;;;;;;;;;5055587;28;20205;-81
2023/01/25 09:14:59;;;;;;;35.30;20.60;;;;;;;;;;5054950;28;20247;-81
2023/01/25 09:17:25;;;;;;;42.17;22.65;;;;;;;;;;5071508;28;20188;-80
2023/01/25 09:19:51;;;;;;;42.53;22.20;;;;;;;;;;5020740;28;20546;-81
2023/01/25 09:22:17;;;;;;;43.17;22.02;;;;;;;;;;5054427;28;20174;-79
2023/01/25 09:24:43;;;;;;;41.43;22.40;;;;;;;;;;5072697;28;20798;-82
2023/01/25 09:27:09;;;;;;;41.65;22.25;;;;;;;;;;5058900;28;20765;-81
2023/01/25 09:29:35;;;;;;;39.55;22.48;;;;;;;;;;5057621;28;20176;-81
2023/01/25 09:32:01;;;;;;;39.00;23.53;;;;;;;;;;5074252;28;20219;-81
2023/01/25 09:34:27;;;;;;;41.30;22.33;;;;;;;;;;5057153;28;20774;-81
2023/01/25 09:36:53;;;;;;;42.92;24.00;;;;;;;;;;5073640;28;20198;-81
2023/01/25 09:39:19;;;;;;;42.63;23.75;;;;;;;;;;5057719;28;20187;-81
2023/01/25 09:42:09;;;;;;;39.90;22.75;;;;;;;;;;5073473;28;20531;-81
2023/01/25 09:44:49;;;;;;;43.03;24.02;;;;;;;;;;5073274;28;20177;-81
2023/01/25 09:47:20;;;;;;;43.20;22.33;;;;;;;;;;5073340;28;20172;-81
2023/01/25 09:49:46;;;;;;;40.75;22.92;;;;;;;;;;5073578;28;20227;-81
2023/01/25 09:52:31;;;;;;;39.58;21.85;;;;;;;;;;5057692;28;20208;-81
2023/01/25 09:54:57;;;;;;;42.65;25.42;;;;;;;;;;5072984;28;20267;-81
2023/01/25 09:57:23;;;;;;;41.17;22.98;;;;;;;;;;5072854;28;20184;-81
2023/01/25 09:59:51;;;;;;;36.73;22.17;;;;;;;;;;5072658;28;20177;-82
2023/01/25 10:02:36;;;;;;;37.95;21.75;;;;;;;;;;5072888;28;20419;-82
2023/01/25 10:05:07;;;;;;;50.20;24.00;;;;;;;;;;5072544;28;20648;-81
2023/01/25 10:07:52;;;;;;;39.88;23.25;;;;;;;;;;5072633;28;20236;-81
2023/01/25 10:10:23;;;;;;;45.13;23.48;;;;;;;;;;5073186;28;20182;-81
2023/01/25 10:12:49;;;;;;;43.58;23.27;;;;;;;;;;5072614;28;20204;-81
2023/01/25 10:15:18;;;;;;;46.72;24.25;;;;;;;;;;5056940;28;20655;-81
2023/01/25 10:17:45;;;;;;;41.95;23.13;;;;;;;;;;5073694;28;20213;-81
2023/01/25 10:20:20;;;;;;;48.20;24.33;;;;;;;;;;5073612;28;20690;-82
2023/01/25 10:22:49;;;;;;;34.20;20.25;;;;;;;;;;5073584;28;20188;-81
2023/01/25 10:25:28;;;;;;;42.45;24.08;;;;;;;;;;5072460;28;20519;-81
2023/01/25 10:28:13;;;;;;;39.35;22.80;;;;;;;;;;5057025;28;20275;-81
2023/01/25 10:30:45;;;;;;;46.10;25.92;;;;;;;;;;5064503;28;20191;-81
2023/01/25 10:33:13;;;;;;;38.90;22.73;;;;;;;;;;5066303;28;20227;-81
2023/01/25 10:35:41;;;;;;;42.47;24.27;;;;;;;;;;5064320;28;20562;-81
2023/01/25 10:38:24;;;;;;;40.45;24.33;;;;;;;;;;5044202;28;20188;-79
2023/01/25 10:40:56;;;;;;;43.03;25.40;;;;;;;;;;5040058;28;20223;-79
2023/01/25 10:43:22;;;;;;;43.83;25.30;;;;;;;;;;5058019;28;20620;-79
2023/01/25 10:45:49;;;;;;;37.08;24.05;;;;;;;;;;5039718;28;20556;-80
2023/01/25 10:48:26;;;;;;;44.80;26.27;;;;;;;;;;5072124;28;20170;-81
2023/01/25 10:50:54;;;;;;;48.42;25.70;;;;;;;;;;5056545;28;20184;-83
2023/01/25 10:53:26;;;;;;;45.53;25.38;;;;;;;;;;5042020;28;20188;-80
2023/01/25 10:55:59;;;;;;;42.38;25.10;;;;;;;;;;5038672;28;20199;-82
2023/01/25 10:58:32;;;;;;;49.08;26.52;;;;;;;;;;5039088;28;20505;-80
2023/01/25 11:00:59;;;;;;;44.70;25.98;;;;;;;;;;5038604;28;20208;-81
2023/01/25 11:03:33;;;;;;;49.45;25.90;;;;;;;;;;5038723;28;20174;-81
2023/01/25 11:05:59;;;;;;;48.28;25.65;;;;;;;;;;5056010;28;20165;-81
2023/01/25 11:08:26;;;;;;;49.08;26.75;;;;;;;;;;5038219;28;20229;-80
2023/01/25 11:10:52;;;;;;;52.95;27.60;;;;;;;;;;5038749;28;20508;-80
2023/01/25 11:13:19;;;;;;;46.47;26.23;;;;;;;;;;5038297;28;20218;-81
2023/01/25 11:15:53;;;;;;;53.63;27.10;;;;;;;;;;5056659;28;20172;-81
2023/01/25 11:18:24;;;;;;;57.63;28.30;;;;;;;;;;5058945;28;20191;-80
2023/01/25 11:21:09;;;;;;;46.80;24.92;;;;;;;;;;5046841;28;20542;-80
2023/01/25 11:23:35;;;;;;;50.72;28.20;;;;;;;;;;5038305;28;20191;-81
2023/01/25 11:26:17;;;;;;;54.17;27.17;;;;;;;;;;5055076;28;20184;-79
2023/01/25 11:28:44;;;;;;;55.17;28.73;;;;;;;;;;5039517;28;20274;-79
2023/01/25 11:31:15;;;;;;;55.28;36.78;;;;;;;;;;5038547;28;20226;-79
2023/01/25 11:33:41;;;;;;;52.60;28.02;;;;;;;;;;5038682;28;20212;-79
2023/01/25 11:36:22;;;;;;;63.70;29.90;;;;;;;;;;5054785;28;20230;-79
2023/01/25 11:38:51;;;;;;;57.42;28.67;;;;;;;;;;5038915;28;20203;-82
2023/01/25 11:41:17;;;;;;;52.83;26.50;;;;;;;;;;5061132;28;20177;-80
2023/01/25 11:44:02;;;;;;;61.30;28.13;;;;;;;;;;5038359;28;20203;-81
2023/01/25 11:46:39;;;;;;;54.20;28.08;;;;;;;;;;5055185;28;20992;-81
2023/01/25 11:49:05;;;;;;;56.72;28.45;;;;;;;;;;5038008;28;20347;-81
2023/01/25 11:51:46;;;;;;;51.97;27.95;;;;;;;;;;5038164;28;20203;-82
2023/01/25 11:54:12;;;;;;;53.42;27.75;;;;;;;;;;5037934;28;20212;-81
2023/01/25 11:56:38;;;;;;;59.30;27.97;;;;;;;;;;5038137;28;20176;-82
2023/01/25 11:59:23;;;;;;;60.23;30.10;;;;;;;;;;5055618;28;20814;-82
2023/01/25 12:01:52;;;;;;;47.83;24.15;;;;;;;;;;5038116;28;20443;-81
2023/01/25 12:04:18;;;;;;;56.53;32.45;;;;;;;;;;5036603;28;20722;-80
2023/01/25 12:06:44;;;;;;;57.92;35.88;;;;;;;;;;5038554;28;20454;-82
2023/01/25 12:09:18;;;;;;;54.10;29.40;;;;;;;;;;5053637;28;20186;-82
2023/01/25 12:12:02;;;;;;;56.13;28.70;;;;;;;;;;5057817;28;20796;-80
2023/01/25 12:14:31;;;;;;;53.58;26.80;;;;;;;;;;5057283;28;20218;-81
2023/01/25 12:17:04;;;;;;;51.08;25.42;;;;;;;;;;5056946;28;20184;-83
2023/01/25 12:19:37;;;;;;;52.35;26.10;;;;;;;;;;5056931;28;20177;-83
2023/01/25 12:22:12;;;;;;;51.28;24.70;;;;;;;;;;5074847;28;20174;-82
2023/01/25 12:24:38;;;;;;;60.47;26.40;;;;;;;;;;5057350;28;20174;-81
2023/01/25 12:27:04;;;;;;;56.22;26.00;;;;;;;;;;5074384;28;20628;-83
2023/01/25 12:29:34;;;;;;;52.13;25.87;;;;;;;;;;5057019;28;20265;-82
2023/01/25 12:32:12;;;;;;;47.00;25.45;;;;;;;;;;5056928;28;20834;-82
2023/01/25 12:34:40;;;;;;;48.95;25.60;;;;;;;;;;5057522;28;20186;-81
2023/01/25 12:37:21;;;;;;;54.25;24.45;;;;;;;;;;5056117;28;20265;-82
2023/01/25 12:39:58;;;;;;;48.80;25.30;;;;;;;;;;5057164;28;20174;-82
2023/01/25 12:42:27;;;;;;;54.30;24.58;;;;;;;;;;5056967;28;20183;-82
2023/01/25 12:45:02;;;;;;;60.25;28.70;;;;;;;;;;5057217;28;20176;-81
2023/01/25 12:47:40;;;;;;;49.40;25.70;;;;;;;;;;5057713;28;20527;-79
2023/01/25 12:50:14;;;;;;;56.85;27.25;;;;;;;;;;5057053;28;20175;-81
2023/01/25 12:52:46;;;;;;;52.63;26.23;;;;;;;;;;5074850;28;20187;-80
2023/01/25 12:55:14;;;;;;;50.80;24.90;;;;;;;;;;5056648;28;20186;-81
2023/01/25 12:57:47;;;;;;;51.20;24.08;;;;;;;;;;5075206;28;20168;-80
2023/01/25 13:00:20;;;;;;;51.72;24.17;;;;;;;;;;5075120;28;20182;-80
2023/01/25 13:02:54;;;;;;;47.72;26.88;;;;;;;;;;5056897;28;20184;-82
2023/01/25 13:05:41;;;;;;;49.50;24.38;;;;;;;;;;5074852;28;20163;-81
2023/01/25 13:08:17;;;;;;;55.97;25.45;;;;;;;;;;5035062;28;20250;-82
2023/01/25 13:10:46;;;;;;;56.42;25.15;;;;;;;;;;5036992;28;20200;-81
2023/01/25 13:13:25;;;;;;;46.55;23.65;;;;;;;;;;5054236;28;20756;-80
2023/01/25 13:15:52;;;;;;;44.17;23.98;;;;;;;;;;5054587;28;20565;-81
2023/01/25 13:18:27;;;;;;;42.92;22.65;;;;;;;;;;5036366;28;20187;-80
2023/01/25 13:20:54;;;;;;;41.88;22.85;;;;;;;;;;5036541;28;20168;-81
2023/01/25 13:23:42;;;;;;;38.60;20.30;;;;;;;;;;5053947;28;20227;-81
2023/01/25 13:26:20;;;;;;;42.92;22.63;;;;;;;;;;5054333;28;20161;-81
2023/01/25 13:28:47;;;;;;;40.88;21.48;;;;;;;;;;5054212;28;20173;-82
2023/01/25 13:31:32;;;;;;;36.40;19.70;;;;;;;;;;5054210;28;20166;-81
2023/01/25 13:33:59;;;;;;;38.17;19.60;;;;;;;;;;5054163;28;20271;-81
2023/01/25 13:36:41;;;;;;;31.92;17.58;;;;;;;;;;5053934;28;20225;-84
2023/01/25 13:39:31;;;;;;;96.10;56.65;;;;;;;;;;5035837;28;20270;-81
2023/01/25 13:41:58;;;;;;;41.35;22.83;;;;;;;;;;5036339;28;20184;-82
2023/01/25 13:44:27;;;;;;;43.63;22.67;;;;;;;;;;5035631;28;20176;-82
2023/01/25 13:46:53;;;;;;;59.30;28.48;;;;;;;;;;5053966;28;20181;-81
2023/01/25 13:49:22;;;;;;;63.25;28.75;;;;;;;;;;5053353;28;20181;-82
2023/01/25 13:51:48;;;;;;;61.75;29.60;;;;;;;;;;5053840;28;20566;-81
2023/01/25 13:54:15;;;;;;;38.88;18.65;;;;;;;;;;5053585;28;20188;-81
2023/01/25 13:56:41;;;;;;;37.13;18.92;;;;;;;;;;5053391;28;20541;-81
2023/01/25 13:59:22;;;;;;;32.20;18.83;;;;;;;;;;5069112;28;20180;-82
2023/01/25 14:01:48;;;;;;;33.45;15.82;;;;;;;;;;5053821;28;20423;-81
2023/01/25 14:04:14;;;;;;;36.85;18.52;;;;;;;;;;5053453;28;20182;-81
2023/01/25 14:06:41;;;;;;;30.85;18.20;;;;;;;;;;5051826;28;20586;-81
2023/01/25 14:09:18;;;;;;;29.38;16.85;;;;;;;;;;5052301;28;20240;-82
2023/01/25 14:11:46;;;;;;;30.67;16.77;;;;;;;;;;5057364;28;20207;-81
2023/01/25 14:14:18;;;;;;;28.67;16.08;;;;;;;;;;5057139;28;20293;-81
2023/01/25 14:16:44;;;;;;;44.13;22.00;;;;;;;;;;5038673;28;20178;-81
2023/01/25 14:19:23;;;;;;;38.53;20.35;;;;;;;;;;5057089;28;20262;-87
2023/01/25 14:21:50;;;;;;;31.85;16.45;;;;;;;;;;5057703;28;20182;-81
2023/01/25 14:24:20;;;;;;;37.10;18.30;;;;;;;;;;5056755;28;20180;-82